La Grande, OR (97850)

4:53 PM PST on February 07, 2016 (GMT -0800)
La Grande | | Change Station
CLOSE
Current Station
Personal Weather Station
Location: La Grande, OR
Elevation: 2850 ft
Nearby Weather Stations

Elev 2850 ft 45.33 °N, 118.10 °W | Updated 1 second ago

Clear
Clear
42.1 °F
Feels Like 42 °F
N
0.0
Wind Variable Wind from North
Gusts 0.0 mph

Today
High -- | Low -- °F
--% Chance of Precip.
Yesterday
High -- | Low -- °F
Precip. -- in
Pressure 30.58 in
Visibility 10.0 miles
Clouds Clear
Windchill 42 °F
Dew Point 34 °F
Humidity 71%
Rainfall 0.00 in
Snow Depth Not available.
7:06 AM 5:08 PM
Waning Crescent, 0% visible
METAR KLGD 080035Z AUTO 20011KT 10SM CLR 07/M02 A3058 RMK AO1
Pressure 30.58 in
Visibility 10.0 miles
Clouds Clear
Windchill 42 °F
Dew Point 34 °F
Humidity 71%
Rainfall 0.00 in
Snow Depth Not available.
7:06 AM 5:08 PM
Waning Crescent, 0% visible
METAR KLGD 080035Z AUTO 20011KT 10SM CLR 07/M02 A3058 RMK AO1

10-Day Weather Forecast

Almanac

Astronomy

Feb. 07, 2016 Rise Set
Actual Time
Civil Twilight
Nautical Twilight
Astronomical Twilight
Moon
Length of Visible Light
Length of Day
Tomorrow will be .
, % of the Moon is Illuminated

Today's Extremes

State Highs State Lows

Community

WunderPhotos

Upload Photos

1,891,339 photos uploaded!

WunderBlog® & News

Nearby

Air Quality

  Air Quality AQ Index Pollutant
Not available.

Snow Depth

Station Depth Elevation

Earthquake Activity

City Distance Mag. Time & Date
Minimum magnitude displayed is 2.5.

Coastal Water Temperatures

Place Temperature

Stations

Nearby Weather Stations

Station Location Temp. Windchill Dew Point Humidity Wind Precip. Elev Updated Type
                   

Watches & Warnings

There are currently no watches in effect.